Time;durP1;ratioP1;P1;durP2;ratioP2;P2;SDS_P1;SDS_P2;PMS_P1;PMS_P2;Temp;Humidity;BMP_temperature;BMP_pressure;BME280_temperature;BME280_humidity;BME280_pressure;Samples;Min_cycle;Max_cycle;Signal;HPM_P1;HPM_P2
2022/07/21 04:22:46;;;;;;;21.42;13.55;;;;;;;19.57;100.00;100628.31;5109042;27;20360;-71
2022/07/21 04:25:12;;;;;;;23.65;14.65;;;;;;;19.60;100.00;100630.59;5109296;28;20059;-69
2022/07/21 04:27:38;;;;;;;22.25;15.95;;;;;;;19.65;100.00;100631.59;5109463;28;20036;-69
2022/07/21 04:30:06;;;;;;;24.63;16.38;;;;;;;19.71;100.00;100632.56;5108964;28;20070;-69
2022/07/21 04:32:31;;;;;;;21.98;14.93;;;;;;;19.78;100.00;100633.31;5108008;28;20034;-69
2022/07/21 04:34:57;;;;;;;23.30;15.20;;;;;;;19.81;100.00;100643.66;5124726;22;20040;-68
2022/07/21 04:37:22;;;;;;;24.65;14.85;;;;;;;19.82;100.00;100639.09;5088716;28;20032;-69
2022/07/21 04:39:48;;;;;;;18.55;14.38;;;;;;;19.87;100.00;100636.53;5088335;28;20499;-69
2022/07/21 04:42:14;;;;;;;22.10;15.48;;;;;;;19.88;100.00;100628.19;5088580;28;20421;-70
2022/07/21 04:44:39;;;;;;;24.15;16.27;;;;;;;19.91;100.00;100633.19;5093488;28;20036;-70
2022/07/21 04:47:05;;;;;;;23.88;15.85;;;;;;;19.95;100.00;100637.09;5108846;28;20040;-69
2022/07/21 04:49:30;;;;;;;26.77;16.02;;;;;;;19.97;100.00;100639.56;5108495;28;20032;-70
2022/07/21 04:51:56;;;;;;;24.90;16.23;;;;;;;19.96;100.00;100627.09;5107570;28;20488;-70
2022/07/21 04:54:21;;;;;;;26.15;15.43;;;;;;;19.96;100.00;100632.50;5108688;28;20028;-69
2022/07/21 04:56:47;;;;;;;24.92;16.80;;;;;;;20.01;100.00;100644.28;5108623;28;20453;-68
2022/07/21 04:59:14;;;;;;;26.40;16.40;;;;;;;20.04;100.00;100648.41;5108311;28;20059;-70
2022/07/21 05:01:39;;;;;;;23.33;15.05;;;;;;;20.10;100.00;100654.81;5108584;28;20040;-69
2022/07/21 05:04:05;;;;;;;22.67;16.10;;;;;;;20.13;100.00;100657.03;5108551;28;20127;-70
2022/07/21 05:06:31;;;;;;;21.65;15.85;;;;;;;20.17;100.00;100659.09;5108626;28;20028;-70
2022/07/21 05:08:57;;;;;;;22.50;16.55;;;;;;;20.21;100.00;100665.69;5108357;28;20903;-69
2022/07/21 05:11:22;;;;;;;21.08;14.73;;;;;;;20.23;100.00;100658.19;5108322;28;20036;-50
2022/07/21 05:13:48;;;;;;;20.35;15.68;;;;;;;20.27;100.00;100670.19;5108329;28;20024;-54
2022/07/21 05:16:13;;;;;;;22.73;15.32;;;;;;;20.26;100.00;100673.94;5108139;28;20496;-50
2022/07/21 05:18:38;;;;;;;21.40;15.32;;;;;;;20.23;100.00;100674.41;5108046;28;20528;-54
2022/07/21 05:21:04;;;;;;;22.08;14.88;;;;;;;20.25;100.00;100682.28;5106865;28;20036;-51
2022/07/21 05:23:29;;;;;;;23.48;15.45;;;;;;;20.19;100.00;100680.47;5108120;28;20035;-54
2022/07/21 05:25:55;;;;;;;21.35;14.40;;;;;;;20.21;100.00;100687.34;5106629;28;20078;-52
2022/07/21 05:28:20;;;;;;;25.55;17.58;;;;;;;20.20;100.00;100682.13;5107731;28;20075;-51
2022/07/21 05:30:46;;;;;;;22.88;15.32;;;;;;;20.21;100.00;100684.63;5107599;28;20069;-52
2022/07/21 05:33:11;;;;;;;25.52;15.88;;;;;;;20.25;100.00;100680.41;5106927;28;20073;-51
2022/07/21 05:35:37;;;;;;;24.58;15.77;;;;;;;20.24;100.00;100676.06;5114478;28;20039;-54
2022/07/21 05:38:03;;;;;;;24.65;15.27;;;;;;;20.26;100.00;100679.34;5114656;28;20043;-52
2022/07/21 05:40:28;;;;;;;26.67;16.15;;;;;;;20.33;100.00;100679.28;5114120;28;20028;-54
2022/07/21 05:42:54;;;;;;;24.85;16.45;;;;;;;20.37;100.00;100676.94;5114559;28;20053;-49
2022/07/21 05:45:19;;;;;;;23.75;15.95;;;;;;;20.36;100.00;100672.59;5114498;28;20046;-49
2022/07/21 05:47:45;;;;;;;23.67;16.67;;;;;;;20.42;100.00;100682.50;5114403;28;20105;-54
2022/07/21 05:50:11;;;;;;;26.05;15.82;;;;;;;20.48;100.00;100676.22;5114085;28;20047;-52
2022/07/21 05:52:37;;;;;;;23.60;15.60;;;;;;;20.44;100.00;100677.69;5114516;28;20532;-52
2022/07/21 05:55:03;;;;;;;25.73;15.10;;;;;;;20.43;100.00;100673.34;5114316;28;20153;-49
2022/07/21 05:57:29;;;;;;;23.50;15.88;;;;;;;20.46;100.00;100665.59;5114381;28;20164;-52
2022/07/21 05:59:55;;;;;;;25.17;16.50;;;;;;;20.47;100.00;100675.38;5113962;28;20075;-51
2022/07/21 06:02:20;;;;;;;26.15;16.95;;;;;;;20.46;100.00;100668.31;5114036;28;20492;-54
2022/07/21 06:04:46;;;;;;;24.77;15.40;;;;;;;20.46;100.00;100679.13;5114149;28;20097;-49
2022/07/21 06:07:11;;;;;;;28.60;17.20;;;;;;;20.52;100.00;100677.41;5114139;28;20118;-49
2022/07/21 06:09:37;;;;;;;30.90;18.63;;;;;;;20.53;100.00;100673.63;5113879;28;20047;-50
2022/07/21 06:12:02;;;;;;;23.05;16.33;;;;;;;20.59;100.00;100670.03;5114033;28;20031;-51
2022/07/21 06:14:28;;;;;;;26.05;16.58;;;;;;;20.62;100.00;100666.88;5113892;28;20070;-51
2022/07/21 06:16:54;;;;;;;24.45;15.50;;;;;;;20.67;100.00;100669.72;5113841;28;20110;-49
2022/07/21 06:19:20;;;;;;;24.35;15.73;;;;;;;20.71;100.00;100676.31;5113551;28;20519;-52
2022/07/21 06:21:46;;;;;;;25.08;15.63;;;;;;;20.79;100.00;100677.88;5113778;28;20036;-53
2022/07/21 06:24:11;;;;;;;21.92;14.15;;;;;;;20.84;100.00;100678.00;5113577;28;20399;-54
2022/07/21 06:26:38;;;;;;;20.48;13.10;;;;;;;20.97;100.00;100685.94;5113582;28;20551;-52
2022/07/21 06:29:04;;;;;;;20.15;13.57;;;;;;;21.02;100.00;100679.84;5113362;28;20042;-51
2022/07/21 06:31:29;;;;;;;20.15;12.73;;;;;;;21.08;100.00;100687.03;5113561;28;20039;-52
2022/07/21 06:33:55;;;;;;;23.25;13.20;;;;;;;21.21;98.51;100692.25;5113648;28;20085;-49
2022/07/21 06:36:20;;;;;;;23.23;12.80;;;;;;;21.26;95.84;100686.13;5113391;28;20031;-50
2022/07/21 06:38:46;;;;;;;18.10;11.25;;;;;;;21.37;95.72;100691.59;5113172;28;20047;-52
2022/07/21 06:41:12;;;;;;;17.45;11.23;;;;;;;21.48;95.54;100686.44;5113270;28;20058;-55
2022/07/21 06:43:37;;;;;;;15.40;10.85;;;;;;;21.52;91.48;100691.16;5113472;28;20067;-52
2022/07/21 06:46:03;;;;;;;16.92;11.07;;;;;;;21.58;92.90;100686.66;5112779;28;20032;-54
2022/07/21 06:48:29;;;;;;;15.35;10.50;;;;;;;21.77;89.47;100696.31;5113242;28;20093;-49
2022/07/21 06:50:55;;;;;;;16.25;10.75;;;;;;;21.82;88.00;100698.34;5113011;28;20028;-50
2022/07/21 06:53:23;;;;;;;20.92;11.77;;;;;;;21.94;88.74;100694.56;5113259;28;20036;-51
2022/07/21 06:55:52;;;;;;;18.10;11.20;;;;;;;22.10;88.80;100700.34;5111898;28;20119;-50
2022/07/21 06:58:19;;;;;;;14.38;10.52;;;;;;;22.00;88.44;100705.53;5113023;28;20484;-51
2022/07/21 07:00:46;;;;;;;17.15;10.32;;;;;;;22.00;88.72;100703.63;5112356;28;20517;-53
2022/07/21 07:03:12;;;;;;;15.27;11.27;;;;;;;21.95;86.74;100708.94;5113047;28;20031;-54
2022/07/21 07:05:38;;;;;;;17.85;10.95;;;;;;;21.97;86.72;100700.56;5112924;28;20461;-52
2022/07/21 07:08:04;;;;;;;15.75;10.52;;;;;;;21.94;87.64;100712.72;5112782;28;20119;-52
2022/07/21 07:10:29;;;;;;;18.95;11.18;;;;;;;21.89;87.08;100716.13;5112388;28;20043;-51
2022/07/21 07:12:55;;;;;;;16.77;11.30;;;;;;;21.92;87.47;100717.56;5112751;28;20036;-54
2022/07/21 07:15:22;;;;;;;16.23;10.35;;;;;;;21.89;87.62;100715.31;5112610;28;20059;-50
2022/07/21 07:17:48;;;;;;;17.10;10.98;;;;;;;21.82;89.34;100720.03;5112643;28;20044;-49
2022/07/21 07:20:14;;;;;;;18.48;11.15;;;;;;;21.87;89.16;100722.84;5112621;28;20400;-50
2022/07/21 07:22:39;;;;;;;16.67;11.02;;;;;;;21.88;88.99;100714.47;5112409;28;20042;-49
2022/07/21 07:25:05;;;;;;;15.07;10.48;;;;;;;21.90;87.39;100717.78;5112378;28;20071;-51
2022/07/21 07:27:31;;;;;;;22.50;11.57;;;;;;;21.96;87.15;100721.44;5112560;28;20583;-50
2022/07/21 07:29:56;;;;;;;16.92;10.93;;;;;;;21.99;85.55;100720.97;5111090;28;20118;-52
2022/07/21 07:32:22;;;;;;;16.58;10.60;;;;;;;22.04;85.45;100723.81;5112421;28;20046;-54
2022/07/21 07:34:47;;;;;;;16.77;10.90;;;;;;;22.03;86.49;100726.72;5110979;28;20036;-52
2022/07/21 07:37:13;;;;;;;14.65;10.65;;;;;;;22.03;83.84;100732.97;5112421;28;20031;-50
2022/07/21 07:39:39;;;;;;;14.45;10.23;;;;;;;22.02;82.88;100733.22;5111980;28;20031;-52
2022/07/21 07:42:05;;;;;;;19.67;10.45;;;;;;;22.01;83.92;100735.09;5112211;28;20046;-53
2022/07/21 07:44:31;;;;;;;14.45;9.30;;;;;;;21.99;84.75;100731.81;5112115;28;20118;-50
2022/07/21 07:46:56;;;;;;;16.65;9.93;;;;;;;22.02;80.56;100730.50;5112179;28;20036;-52
2022/07/21 07:49:22;;;;;;;15.77;9.68;;;;;;;22.04;80.04;100733.78;5111951;28;20047;-57
2022/07/21 07:51:48;;;;;;;14.80;9.45;;;;;;;22.13;80.15;100727.00;5112174;28;20081;-52
2022/07/21 07:54:14;;;;;;;14.25;10.27;;;;;;;22.16;81.36;100721.91;5111905;28;20100;-56
2022/07/21 07:56:40;;;;;;;15.52;9.57;;;;;;;22.20;78.84;100724.97;5111865;28;20047;-53
2022/07/21 07:59:05;;;;;;;16.23;10.30;;;;;;;22.24;78.19;100726.16;5111857;28;20040;-55
2022/07/21 08:01:31;;;;;;;14.63;9.43;;;;;;;22.33;79.32;100721.19;5111948;28;20334;-53
2022/07/21 08:03:56;;;;;;;17.50;10.07;;;;;;;22.54;78.88;100717.81;5112060;28;20110;-51
2022/07/21 08:06:22;;;;;;;15.13;10.60;;;;;;;22.65;78.89;100713.44;5112003;28;20484;-48
2022/07/21 08:08:48;;;;;;;14.43;10.52;;;;;;;22.57;76.92;100705.66;5111565;28;20048;-51
2022/07/21 08:11:14;;;;;;;14.07;10.02;;;;;;;22.73;77.45;100721.19;5111705;28;20065;-53
2022/07/21 08:13:39;;;;;;;15.65;10.38;;;;;;;22.71;78.18;100712.47;5111679;28;20031;-55
2022/07/21 08:16:05;;;;;;;16.50;10.95;;;;;;;22.68;77.33;100708.31;5111634;28;20476;-55
2022/07/21 08:18:31;;;;;;;14.52;10.07;;;;;;;22.86;76.39;100706.50;5112024;28;20039;-54
2022/07/21 08:20:56;;;;;;;15.65;10.60;;;;;;;23.06;77.40;100709.59;5111462;28;20040;-50
2022/07/21 08:23:21;;;;;;;13.77;10.23;;;;;;;23.20;75.13;100700.06;5111695;28;20089;-57
2022/07/21 08:25:47;;;;;;;14.40;9.70;;;;;;;23.41;73.91;100712.13;5111838;28;20047;-55
2022/07/21 08:28:12;;;;;;;13.95;10.07;;;;;;;23.47;71.95;100708.44;5110536;28;20042;-50
2022/07/21 08:30:38;;;;;;;16.80;11.02;;;;;;;23.45;73.65;100712.44;5111405;28;20044;-51
2022/07/21 08:33:05;;;;;;;15.65;10.40;;;;;;;23.41;73.31;100717.56;5111622;28;20071;-53
2022/07/21 08:35:32;;;;;;;16.63;9.83;;;;;;;23.39;74.15;100703.38;5111524;28;20411;-50
2022/07/21 08:38:02;;;;;;;15.50;10.93;;;;;;;23.50;73.57;100704.38;5111537;28;20044;-48
2022/07/21 08:40:31;;;;;;;17.20;11.30;;;;;;;23.56;73.42;100708.81;5111384;28;20413;-49
2022/07/21 08:42:56;;;;;;;16.80;11.50;;;;;;;23.48;74.35;100704.63;5111710;28;20030;-50
2022/07/21 08:45:23;;;;;;;17.00;10.40;;;;;;;23.32;74.70;100719.03;5111398;28;20035;-54
2022/07/21 08:47:53;;;;;;;16.50;10.88;;;;;;;23.33;75.46;100726.09;5111534;28;20039;-50
2022/07/21 08:50:19;;;;;;;18.30;11.63;;;;;;;23.31;75.24;100724.72;5111333;28;20050;-51
2022/07/21 08:52:45;;;;;;;16.85;11.00;;;;;;;23.56;75.23;100730.56;5111463;28;20039;-49
2022/07/21 08:55:10;;;;;;;17.70;11.93;;;;;;;23.78;75.14;100722.50;5111297;28;20499;-56
2022/07/21 08:57:39;;;;;;;17.55;11.30;;;;;;;23.92;75.32;100722.97;5111356;28;20046;-49
2022/07/21 09:00:06;;;;;;;16.00;11.10;;;;;;;23.81;75.87;100724.75;5111054;28;20043;-54
2022/07/21 09:02:33;;;;;;;16.48;11.10;;;;;;;23.76;76.03;100722.75;5111118;28;20035;-51
2022/07/21 09:05:00;;;;;;;16.48;11.23;;;;;;;23.96;74.99;100724.13;5111108;28;20031;-50
2022/07/21 09:07:26;;;;;;;15.33;10.30;;;;;;;24.24;73.35;100713.09;5110276;28;20024;-49
2022/07/21 09:10:00;;;;;;;18.23;10.65;;;;;;;24.53;70.68;100711.06;5114904;28;20279;-52
2022/07/21 09:12:26;;;;;;;13.80;9.70;;;;;;;24.68;70.13;100709.56;5115133;28;20032;-51
2022/07/21 09:15:11;;;;;;;14.07;9.90;;;;;;;24.78;70.29;100709.69;5115081;27;20476;-50
2022/07/21 09:17:36;;;;;;;13.00;9.00;;;;;;;25.05;64.21;100705.09;5115073;28;20040;-47
2022/07/21 09:20:02;;;;;;;13.70;9.43;;;;;;;25.40;64.21;100695.59;5114884;28;20039;-47
2022/07/21 09:22:29;;;;;;;14.55;8.88;;;;;;;25.49;62.53;100702.19;5114995;28;20039;-47
2022/07/21 09:24:54;;;;;;;10.73;8.55;;;;;;;25.75;60.02;100702.41;5115079;28;20043;-49
2022/07/21 09:27:24;;;;;;;12.48;8.50;;;;;;;25.71;59.65;100702.91;5114920;28;20042;-46
2022/07/21 09:29:56;;;;;;;13.80;8.40;;;;;;;25.88;59.66;100707.41;5114640;28;20074;-48
2022/07/21 09:32:31;;;;;;;10.77;7.45;;;;;;;25.70;59.75;100704.00;5114930;28;20059;-48
2022/07/21 09:35:09;;;;;;;7.28;6.15;;;;;;;25.82;59.15;100712.03;5103347;28;20044;-47
2022/07/21 09:37:35;;;;;;;9.85;7.53;;;;;;;26.06;59.14;100706.16;5094337;28;20036;-49
2022/07/21 09:40:11;;;;;;;9.45;7.20;;;;;;;26.10;59.68;100710.00;5094126;28;20566;-47
2022/07/21 09:42:40;;;;;;;9.40;7.00;;;;;;;25.92;59.38;100700.34;5094100;28;20135;-54
2022/07/21 09:45:15;;;;;;;9.38;7.57;;;;;;;25.71;60.04;100715.72;5094317;28;20526;-47
2022/07/21 09:47:42;;;;;;;11.68;7.80;;;;;;;25.56;60.15;100707.41;5094097;28;20512;-49
2022/07/21 09:50:09;;;;;;;10.02;7.00;;;;;;;25.40;59.54;100706.50;5093761;28;20036;-52
2022/07/21 09:52:41;;;;;;;11.13;6.78;;;;;;;25.50;59.05;100703.84;5094004;28;20381;-51
2022/07/21 09:55:17;;;;;;;7.93;6.55;;;;;;;25.90;59.71;100699.78;5093907;28;20036;-51
2022/07/21 09:57:44;;;;;;;8.95;6.63;;;;;;;26.07;59.31;100705.88;5093959;28;20123;-49
2022/07/21 10:00:16;;;;;;;9.27;7.25;;;;;;;26.48;56.72;100703.38;5092353;28;20507;-49
2022/07/21 10:02:43;;;;;;;11.77;8.18;;;;;;;26.78;55.59;100700.72;5093764;28;20043;-53
2022/07/21 10:05:11;;;;;;;9.57;7.55;;;;;;;27.00;56.08;100703.22;5093832;28;20036;-50
2022/07/21 10:07:40;;;;;;;9.82;7.60;;;;;;;27.29;56.15;100692.59;5093829;28;20066;-61
2022/07/21 10:10:06;;;;;;;10.48;7.13;;;;;;;27.52;54.76;100696.72;5093572;28;20046;-59
2022/07/21 10:12:32;;;;;;;10.27;7.43;;;;;;;27.67;52.73;100704.06;5093889;28;20054;-59
2022/07/21 10:14:57;;;;;;;9.50;5.97;;;;;;;27.92;50.16;100692.28;5093604;28;20062;-56
2022/07/21 10:17:24;;;;;;;7.35;6.00;;;;;;;28.20;49.76;100682.63;5093637;28;20476;-63
2022/07/21 10:20:11;;;;;;;7.55;5.85;;;;;;;28.45;50.06;100686.38;5093232;28;20032;-64
2022/07/21 10:22:44;;;;;;;8.75;5.68;;;;;;;28.73;48.10;100682.09;5093779;28;20493;-60
2022/07/21 10:25:09;;;;;;;9.43;5.85;;;;;;;29.08;48.23;100687.41;5093485;28;20403;-59
2022/07/21 10:27:35;;;;;;;8.68;6.13;;;;;;;29.27;46.90;100692.97;5093414;28;20115;-60
2022/07/21 10:30:03;;;;;;;6.47;5.43;;;;;;;29.25;45.69;100680.66;5093215;28;20093;-60
2022/07/21 10:32:47;;;;;;;8.93;5.07;;;;;;;29.26;44.89;100683.13;5093412;28;20016;-60
2022/07/21 10:35:30;;;;;;;7.63;5.47;;;;;;;29.45;45.12;100683.22;5093517;28;20047;-47
2022/07/21 10:37:56;;;;;;;5.65;5.00;;;;;;;29.99;48.02;100684.88;5093410;28;20184;-65
2022/07/21 10:40:21;;;;;;;7.40;4.53;;;;;;;29.96;42.79;100680.81;5092935;28;20040;-65
2022/07/21 10:42:59;;;;;;;7.53;4.68;;;;;;;30.07;42.94;100687.00;5092996;28;20034;-65
2022/07/21 10:45:35;;;;;;;5.05;4.53;;;;;;;30.06;44.29;100679.03;5092967;28;20031;-65
2022/07/21 10:48:03;;;;;;;5.38;4.20;;;;;;;30.27;44.96;100677.75;5093095;28;20442;-65
2022/07/21 10:50:37;;;;;;;4.57;3.67;;;;;;;30.49;42.74;100677.97;5092938;28;20485;-64
2022/07/21 10:53:11;;;;;;;6.18;4.38;;;;;;;30.67;42.12;100681.03;5092962;28;20131;-65
2022/07/21 10:55:37;;;;;;;3.92;3.50;;;;;;;30.69;39.77;100676.91;5092728;28;20497;-65
2022/07/21 10:58:14;;;;;;;4.20;3.17;;;;;;;31.04;39.67;100672.00;5092916;28;20067;-62
2022/07/21 11:01:12;;;;;;;4.28;3.50;;;;;;;31.40;40.55;100680.47;5092347;28;20123;-62
2022/07/21 11:03:40;;;;;;;3.70;3.20;;;;;;;30.95;38.58;100687.53;5080417;28;20090;-60
2022/07/21 11:06:05;;;;;;;4.93;3.35;;;;;;;31.59;40.51;100667.47;5092675;28;20044;-58
2022/07/21 11:08:33;;;;;;;3.83;2.92;;;;;;;31.51;38.73;100670.94;5092726;28;20043;-63
2022/07/21 11:11:10;;;;;;;3.85;2.97;;;;;;;31.76;39.66;100677.91;5092554;28;20036;-64
2022/07/21 11:14:02;;;;;;;3.97;3.10;;;;;;;31.62;36.52;100671.53;5092514;28;20036;-63
2022/07/21 11:16:49;;;;;;;2.60;2.30;;;;;;;32.34;36.88;100665.47;5091589;28;20062;-59
2022/07/21 11:19:46;;;;;;;3.42;2.50;;;;;;;32.13;37.71;100659.56;5092370;28;20394;-59
2022/07/21 11:22:16;;;;;;;3.97;2.45;;;;;;;31.33;38.88;100658.84;5092450;28;20037;-61
2022/07/21 11:25:03;;;;;;;4.88;2.78;;;;;;;30.96;39.22;100662.47;5090095;28;20028;-63
2022/07/21 11:27:31;;;;;;;3.15;2.55;;;;;;;30.88;39.11;100656.84;5092071;28;20055;-62
2022/07/21 11:29:59;;;;;;;4.85;2.50;;;;;;;31.31;38.93;100658.34;5091768;28;20031;-63
2022/07/21 11:32:25;;;;;;;3.30;2.53;;;;;;;31.86;38.06;100643.88;5092063;28;20028;-63
2022/07/21 11:34:53;;;;;;;4.00;2.70;;;;;;;31.57;39.50;100653.22;5092056;28;20028;-65
2022/07/21 11:37:31;;;;;;;3.83;2.80;;;;;;;31.96;38.75;100649.19;5092007;28;20043;-64
2022/07/21 11:39:58;;;;;;;4.05;2.63;;;;;;;32.60;38.30;100649.19;5091775;28;20580;-64
2022/07/21 11:42:25;;;;;;;3.65;3.20;;;;;;;32.46;36.39;100649.22;5091944;28;20063;-64
2022/07/21 11:44:51;;;;;;;2.72;2.53;;;;;;;32.74;36.51;100649.16;5091935;28;20080;-65
2022/07/21 11:47:17;;;;;;;3.37;2.90;;;;;;;32.82;37.93;100642.91;5091937;28;20059;-63
2022/07/21 11:49:44;;;;;;;3.17;2.83;;;;;;;32.84;35.55;100638.69;5091691;28;20274;-67
2022/07/21 11:52:10;;;;;;;;;;;;;;;33.39;36.63;100637.66;5091144;28;20388;-60
2022/07/21 11:54:43;;;;;;;4.25;2.78;;;;;;;33.48;35.13;100644.03;5091716;28;19911;-62
2022/07/21 11:57:09;;;;;;;2.88;2.40;;;;;;;33.16;34.99;100645.13;5092067;28;20126;-64
2022/07/21 11:59:36;;;;;;;3.40;2.43;;;;;;;33.11;35.21;100646.06;5091699;28;20118;-63
2022/07/21 12:02:19;;;;;;;3.25;2.95;;;;;;;33.38;34.01;100635.97;5091699;28;20040;-66
2022/07/21 12:04:44;;;;;;;4.05;2.90;;;;;;;33.38;35.60;100633.22;5091817;28;20039;-66
2022/07/21 12:07:25;;;;;;;3.83;2.60;;;;;;;33.62;35.19;100633.69;5090721;28;20036;-66
2022/07/21 12:10:00;;;;;;;4.30;2.70;;;;;;;33.70;34.09;100624.63;5090733;28;20378;-66
2022/07/21 12:12:37;;;;;;;2.65;2.45;;;;;;;33.55;34.09;100627.81;5091485;28;20055;-66
2022/07/21 12:15:14;;;;;;;5.20;2.55;;;;;;;33.94;33.94;100629.78;5091618;28;20028;-62
2022/07/21 12:17:45;;;;;;;2.95;2.50;;;;;;;33.58;33.78;100626.34;5091601;28;20075;-65
2022/07/21 12:20:12;;;;;;;3.80;2.33;;;;;;;33.20;33.34;100615.78;5090489;28;20047;-64
2022/07/21 12:22:46;;;;;;;3.90;2.90;;;;;;;33.69;33.14;100617.47;5091311;28;20066;-64
2022/07/21 12:25:17;;;;;;;2.67;2.33;;;;;;;33.81;33.29;100625.16;5091160;28;20090;-62
2022/07/21 12:27:47;;;;;;;2.60;2.40;;;;;;;33.67;31.87;100618.94;5091226;28;20114;-64
2022/07/21 12:30:31;;;;;;;2.80;2.60;;;;;;;33.39;32.75;100619.16;5090641;28;20120;-63
2022/07/21 12:33:03;;;;;;;2.90;2.40;;;;;;;34.15;32.79;100610.66;5091121;28;20489;-63
2022/07/21 12:35:29;;;;;;;3.45;2.65;;;;;;;34.02;31.80;100608.84;5090759;28;20062;-64
2022/07/21 12:38:00;;;;;;;2.90;2.30;;;;;;;33.36;32.79;100613.41;5090802;28;20044;-64
2022/07/21 12:40:28;;;;;;;3.30;2.22;;;;;;;33.15;31.49;100615.91;5090453;28;20088;-62
2022/07/21 12:43:26;;;;;;;4.18;2.10;;;;;;;33.24;31.87;100613.19;5092427;28;20063;-66
2022/07/21 12:45:54;;;;;;;2.67;2.25;;;;;;;33.16;32.61;100615.56;5061465;28;20075;-67
2022/07/21 12:48:40;;;;;;;3.67;2.45;;;;;;;33.74;32.88;100611.81;5095185;28;20714;-67
2022/07/21 12:51:13;;;;;;;2.65;2.28;;;;;;;33.36;33.02;100616.97;5094918;28;20056;-62
2022/07/21 12:53:43;;;;;;;2.60;2.35;;;;;;;32.51;33.55;100613.28;5094802;28;20040;-65
2022/07/21 12:56:09;;;;;;;2.70;2.45;;;;;;;32.74;34.42;100613.31;5094981;28;20036;-64
2022/07/21 12:58:36;;;;;;;3.60;2.33;;;;;;;32.94;35.59;100612.84;5094651;28;20031;-65
2022/07/21 13:01:03;;;;;;;2.40;2.20;;;;;;;33.08;33.57;100613.59;5094723;28;20042;-63
2022/07/21 13:03:29;;;;;;;;;;;;;;;33.48;34.26;100610.91;5095511;28;20035;-64
2022/07/21 13:05:55;;;;;;;3.80;2.30;;;;;;;33.14;33.58;100608.75;5094864;28;19916;-65
2022/07/21 13:08:20;;;;;;;2.50;2.13;;;;;;;34.21;33.13;100612.13;5094579;28;20046;-65
2022/07/21 13:10:45;;;;;;;2.60;2.07;;;;;;;34.54;32.77;100615.25;5093991;28;20040;-64
2022/07/21 13:13:11;;;;;;;2.67;2.40;;;;;;;34.47;32.26;100608.59;5094628;28;20097;-65
2022/07/21 13:15:36;;;;;;;3.50;2.13;;;;;;;34.63;30.47;100612.53;5093348;28;20539;-65
2022/07/21 13:18:02;;;;;;;2.50;2.00;;;;;;;34.66;29.99;100611.03;5094709;28;20028;-64
2022/07/21 13:20:28;;;;;;;3.37;2.40;;;;;;;34.79;30.48;100610.06;5093907;28;20505;-65
2022/07/21 13:22:53;;;;;;;2.80;2.60;;;;;;;35.22;30.28;100601.72;5094092;28;20062;-66
2022/07/21 13:25:19;;;;;;;4.73;2.47;;;;;;;34.44;31.22;100598.19;5096347;28;20406;-66
2022/07/21 13:27:44;;;;;;;3.87;2.57;;;;;;;33.94;31.31;100596.63;5094980;28;20044;-67
2022/07/21 13:30:10;;;;;;;2.67;2.47;;;;;;;34.29;31.20;100593.91;5095802;28;20044;-67
2022/07/21 13:32:36;;;;;;;2.73;2.40;;;;;;;33.67;31.24;100594.91;5096654;28;20044;-66
2022/07/21 13:35:03;;;;;;;3.35;2.38;;;;;;;33.09;32.99;100587.63;5095683;28;20285;-66
2022/07/21 13:37:29;;;;;;;2.75;2.30;;;;;;;32.85;34.12;100589.84;5094324;28;20040;-67
2022/07/21 13:39:54;;;;;;;4.80;2.20;;;;;;;32.02;33.88;100592.88;5094438;28;20051;-67
2022/07/21 13:42:19;;;;;;;3.37;2.70;;;;;;;31.42;34.58;100589.34;5094782;28;20044;-66
2022/07/21 13:44:48;;;;;;;3.27;2.33;;;;;;;30.86;36.72;100595.84;5097027;28;20040;-67
2022/07/21 13:47:13;;;;;;;4.20;2.15;;;;;;;30.74;36.09;100585.28;5094444;28;20658;-67
2022/07/21 13:49:39;;;;;;;2.97;2.35;;;;;;;30.38;36.54;100593.22;5093526;28;20124;-67
2022/07/21 13:52:04;;;;;;;3.10;2.50;;;;;;;29.90;37.48;100591.38;5093879;28;20043;-67
2022/07/21 13:54:30;;;;;;;3.33;2.37;;;;;;;30.33;38.65;100591.38;5092404;28;20119;-65
2022/07/21 13:56:57;;;;;;;3.08;2.50;;;;;;;30.43;38.13;100585.72;5093816;28;20032;-67
2022/07/21 13:59:22;;;;;;;4.57;2.90;;;;;;;30.03;40.63;100589.03;5093062;28;20043;-67
2022/07/21 14:01:48;;;;;;;3.63;2.80;;;;;;;29.93;39.28;100581.72;5094513;28;20082;-67
2022/07/21 14:04:14;;;;;;;5.00;3.83;;;;;;;30.14;39.32;100585.06;5093724;28;20131;-67
2022/07/21 14:06:39;;;;;;;3.17;2.53;;;;;;;29.75;38.89;100582.50;5093392;28;20039;-67
2022/07/21 14:09:05;;;;;;;4.10;2.67;;;;;;;29.86;39.18;100587.56;5093397;28;20122;-65
2022/07/21 14:11:30;;;;;;;3.13;2.55;;;;;;;29.41;39.04;100581.50;5093923;28;20043;-64
2022/07/21 14:13:56;;;;;;;3.40;2.30;;;;;;;29.00;39.08;100572.81;5093664;28;20119;-67
2022/07/21 14:16:22;;;;;;;3.78;2.80;;;;;;;28.94;39.41;100576.72;5093728;28;20032;-66
2022/07/21 14:18:47;;;;;;;3.42;2.88;;;;;;;29.15;39.04;100580.09;5093740;28;20531;-66
2022/07/21 14:21:13;;;;;;;3.10;2.75;;;;;;;29.28;38.82;100575.84;5093082;28;20028;-66
2022/07/21 14:23:39;;;;;;;2.88;2.45;;;;;;;29.32;39.49;100576.91;5093385;28;20040;-65
2022/07/21 14:26:05;;;;;;;3.65;3.28;;;;;;;29.29;39.99;100575.56;5093192;28;20043;-66
2022/07/21 14:28:30;;;;;;;3.25;2.67;;;;;;;29.03;39.46;100574.19;5093443;28;20039;-67
2022/07/21 14:30:56;;;;;;;3.10;2.63;;;;;;;29.31;39.85;100575.28;5093037;28;20047;-66
2022/07/21 14:33:21;;;;;;;3.83;3.15;;;;;;;29.48;40.13;100574.84;5092909;28;20086;-66
2022/07/21 14:35:46;;;;;;;3.55;2.50;;;;;;;29.33;39.91;100576.59;5092988;28;20044;-67
2022/07/21 14:38:12;;;;;;;3.63;2.85;;;;;;;29.05;39.88;100571.97;5093135;28;20069;-67
2022/07/21 14:40:38;;;;;;;4.63;2.80;;;;;;;29.23;40.46;100568.50;5092199;28;20032;-66
2022/07/21 14:43:04;;;;;;;4.30;2.90;;;;;;;29.22;40.83;100572.34;5092917;28;20394;-67
2022/07/21 14:45:30;;;;;;;5.07;3.00;;;;;;;29.39;41.97;100572.72;5093044;28;20032;-67
2022/07/21 14:47:57;;;;;;;3.65;2.63;;;;;;;29.52;41.22;100564.94;5092695;28;20132;-66
2022/07/21 14:50:24;;;;;;;3.83;3.15;;;;;;;29.59;40.85;100560.72;5091159;28;20043;-67
2022/07/21 14:52:50;;;;;;;4.28;3.25;;;;;;;29.52;40.03;100567.66;5092696;28;20028;-67
2022/07/21 14:55:16;;;;;;;3.78;2.78;;;;;;;29.51;38.96;100568.75;5092828;28;20039;-66
2022/07/21 14:57:41;;;;;;;4.50;2.72;;;;;;;29.32;38.58;100555.78;5092895;28;20415;-54
2022/07/21 15:00:09;;;;;;;3.42;3.13;;;;;;;29.22;39.63;100558.66;5092549;28;20042;-56
2022/07/21 15:02:35;;;;;;;3.83;2.65;;;;;;;29.03;39.50;100564.03;5092779;28;20036;-52
2022/07/21 15:05:01;;;;;;;3.50;3.20;;;;;;;28.87;39.40;100557.81;5092054;28;20036;-54
2022/07/21 15:07:26;;;;;;;3.63;2.80;;;;;;;29.05;41.38;100561.00;5092489;28;20481;-55
2022/07/21 15:09:52;;;;;;;4.13;2.58;;;;;;;28.96;39.74;100554.50;5092427;28;20036;-53
2022/07/21 15:12:18;;;;;;;5.50;3.17;;;;;;;28.89;40.10;100554.81;5092617;28;20564;-55
2022/07/21 15:14:43;;;;;;;4.35;3.20;;;;;;;28.67;39.66;100552.50;5092483;28;20106;-54
2022/07/21 15:17:09;;;;;;;3.03;2.72;;;;;;;28.75;42.40;100549.16;5092427;28;20051;-54
2022/07/21 15:19:34;;;;;;;3.47;3.17;;;;;;;28.69;41.13;100550.31;5092106;28;20097;-55
2022/07/21 15:22:00;;;;;;;3.88;3.58;;;;;;;28.73;41.05;100545.06;5092257;28;20123;-56
2022/07/21 15:24:25;;;;;;;4.03;2.95;;;;;;;28.59;40.62;100545.72;5092239;28;20032;-52
2022/07/21 15:26:51;;;;;;;4.10;3.22;;;;;;;28.68;41.60;100543.19;5092315;28;20535;-53
2022/07/21 15:29:16;;;;;;;4.60;4.05;;;;;;;28.71;40.99;100539.06;5092000;28;20457;-53
2022/07/21 15:31:43;;;;;;;3.33;2.75;;;;;;;28.79;41.80;100536.53;5092187;28;20134;-52
2022/07/21 15:34:10;;;;;;;3.35;3.05;;;;;;;28.81;42.88;100530.75;5091934;28;20032;-52
2022/07/21 15:36:35;;;;;;;6.10;3.80;;;;;;;28.83;41.72;100531.28;5092079;28;20032;-58
2022/07/21 15:39:02;;;;;;;3.45;3.15;;;;;;;28.90;40.95;100534.53;5091732;28;20054;-54
2022/07/21 15:41:27;;;;;;;4.20;3.53;;;;;;;28.80;41.24;100532.66;5091969;28;20032;-51